Time;durP1;ratioP1;P1;durP2;ratioP2;P2;SDS_P1;SDS_P2;PMS_P1;PMS_P2;Temp;Humidity;BMP_temperature;BMP_pressure;BME280_temperature;BME280_humidity;BME280_pressure;Samples;Min_cycle;Max_cycle;Signal;HPM_P1;HPM_P2
2022/03/05 00:03:40;;;;;;;67.38;25.10;;;;;;;0.25;89.96;99923.69;8464640;28;20055;-72
2022/03/05 00:07:41;;;;;;;64.97;24.75;;;;;;;0.24;90.07;99916.75;8435127;28;20068;-72
2022/03/05 00:11:42;;;;;;;65.10;24.92;;;;;;;0.22;90.16;99918.78;8432615;28;20059;-72
2022/03/05 00:15:43;;;;;;;59.05;24.25;;;;;;;0.22;89.96;99921.44;8484208;27;20040;-72
2022/03/05 00:19:44;;;;;;;67.35;26.20;;;;;;;0.20;90.09;99920.88;8440787;28;20059;-72
2022/03/05 00:23:45;;;;;;;68.43;25.25;;;;;;;0.16;89.87;99913.56;8441716;28;20080;-72
2022/03/05 00:27:46;;;;;;;76.25;26.58;;;;;;;0.14;89.91;99911.13;8464006;28;20051;-73
2022/03/05 00:31:47;;;;;;;60.03;25.65;;;;;;;0.14;89.69;99916.44;8497308;27;20051;-72
2022/03/05 00:35:48;;;;;;;61.42;26.40;;;;;;;0.09;90.03;99918.97;8439628;27;20751;-72
2022/03/05 00:39:49;;;;;;;61.45;25.70;;;;;;;0.08;90.33;99904.03;8466161;27;20384;-72
2022/03/05 00:43:50;;;;;;;64.97;27.60;;;;;;;0.05;90.64;99901.03;8446119;28;20047;-73
2022/03/05 00:47:51;;;;;;;67.05;26.88;;;;;;;0.03;90.49;99903.91;8494020;27;20051;-72
2022/03/05 00:51:52;;;;;;;58.88;25.02;;;;;;;0.02;90.34;99902.28;8483752;27;20061;-72
2022/03/05 00:55:54;;;;;;;74.80;27.27;;;;;;;-0.02;90.37;99893.94;8465321;27;20040;-72
2022/03/05 00:59:55;;;;;;;65.35;26.40;;;;;;;-0.07;90.56;99908.91;8434071;28;20518;-72
2022/03/05 01:03:56;;;;;;;64.45;25.73;;;;;;;-0.10;90.51;99898.72;8440163;28;20053;-72
2022/03/05 01:07:57;;;;;;;65.28;26.65;;;;;;;-0.12;89.99;99900.78;8454311;28;20048;-72
2022/03/05 01:11:58;;;;;;;65.00;25.05;;;;;;;-0.16;90.28;99902.28;8430408;28;20136;-72
2022/03/05 01:15:59;;;;;;;62.03;27.00;;;;;;;-0.16;90.54;99899.63;8445144;28;20052;-72
2022/03/05 01:20:00;;;;;;;78.65;28.13;;;;;;;-0.20;90.30;99903.72;8463171;28;20063;-72
2022/03/05 01:24:01;;;;;;;62.20;26.75;;;;;;;-0.23;90.50;99904.16;8446961;27;20077;-72
2022/03/05 01:28:02;;;;;;;65.13;26.50;;;;;;;-0.26;90.57;99899.28;8453334;28;20260;-72
2022/03/05 01:32:04;;;;;;;66.95;26.60;;;;;;;-0.29;90.61;99915.66;8462366;28;20079;-73
2022/03/05 01:36:05;;;;;;;73.03;28.60;;;;;;;-0.33;90.94;99911.81;8462669;28;20059;-72
2022/03/05 01:40:06;;;;;;;72.13;27.65;;;;;;;-0.37;90.41;99902.69;8436389;28;20113;-71
2022/03/05 01:44:07;;;;;;;71.97;28.10;;;;;;;-0.39;90.79;99910.03;8429605;28;20047;-71
2022/03/05 01:48:08;;;;;;;71.38;27.50;;;;;;;-0.45;90.56;99907.22;8443315;28;20063;-72
2022/03/05 01:52:09;;;;;;;63.28;26.90;;;;;;;-0.47;90.81;99903.97;8462433;27;20485;-71
2022/03/05 01:56:12;;;;;;;67.05;26.55;;;;;;;-0.51;90.86;99913.41;8447455;28;20052;-72
2022/03/05 02:00:14;;;;;;;69.13;28.67;;;;;;;-0.50;90.70;99909.72;8519868;27;20054;-72
2022/03/05 02:04:15;;;;;;;69.05;27.50;;;;;;;-0.55;90.98;99906.91;8523391;27;20049;-71
2022/03/05 02:08:17;;;;;;;67.50;26.65;;;;;;;-0.57;91.13;99908.94;8514943;27;20045;-71
2022/03/05 02:12:18;;;;;;;67.57;27.25;;;;;;;-0.61;91.09;99907.75;8526249;27;20046;-71
2022/03/05 02:16:20;;;;;;;70.57;28.55;;;;;;;-0.62;90.84;99906.13;8525886;27;20080;-72
2022/03/05 02:20:21;;;;;;;73.10;28.73;;;;;;;-0.61;91.06;99907.75;8525648;27;20220;-72
2022/03/05 02:24:34;;;;;;;73.47;27.83;;;;;;;-0.59;91.31;99908.38;8525873;27;20055;-72
2022/03/05 02:28:37;;;;;;;71.40;29.15;;;;;;;-0.58;91.04;99902.00;8492050;27;20054;-71
2022/03/05 02:32:38;;;;;;;75.60;29.75;;;;;;;-0.61;90.96;99899.81;8503430;27;20047;-72
2022/03/05 02:36:39;;;;;;;75.07;29.20;;;;;;;-0.65;91.18;99900.47;8482797;27;20048;-73
2022/03/05 02:40:41;;;;;;;69.72;28.95;;;;;;;-0.68;91.36;99901.69;8459400;28;20108;-72
2022/03/05 02:44:42;;;;;;;87.28;34.13;;;;;;;-0.71;91.18;99902.13;8422679;28;20519;-71
2022/03/05 02:48:43;;;;;;;73.72;29.73;;;;;;;-0.73;91.18;99898.88;8383831;28;20049;-71
2022/03/05 02:52:44;;;;;;;64.38;29.02;;;;;;;-0.74;90.98;99902.53;8403451;28;20396;-72
2022/03/05 02:56:46;;;;;;;71.15;26.88;;;;;;;-0.77;91.33;99900.34;8402219;28;20180;-72
2022/03/05 03:00:47;;;;;;;66.32;25.90;;;;;;;-0.81;91.48;99901.81;8447742;28;20052;-71
2022/03/05 03:04:48;;;;;;;59.45;23.25;;;;;;;-0.86;91.30;99899.00;8433157;28;20055;-72
2022/03/05 03:08:49;;;;;;;51.63;21.25;;;;;;;-0.89;91.37;99894.09;8422913;28;20070;-73
2022/03/05 03:12:50;;;;;;;42.30;19.05;;;;;;;-0.88;91.83;99898.38;8415054;28;20062;-72
2022/03/05 03:16:51;;;;;;;37.33;17.33;;;;;;;-0.89;91.73;99896.75;8442937;28;20054;-72
2022/03/05 03:20:52;;;;;;;44.10;18.80;;;;;;;-0.88;91.46;99895.72;8458747;28;20067;-72
2022/03/05 03:24:53;;;;;;;44.38;16.92;;;;;;;-0.93;91.34;99895.56;8451806;28;20055;-71
2022/03/05 03:28:54;;;;;;;36.38;16.80;;;;;;;-1.00;91.34;99892.13;8429620;28;20141;-71
2022/03/05 03:32:55;;;;;;;35.03;15.52;;;;;;;-1.06;91.24;99885.06;8426988;28;20465;-72
2022/03/05 03:36:56;;;;;;;35.28;15.48;;;;;;;-1.08;91.11;99884.47;8426868;28;20048;-73
2022/03/05 03:40:57;;;;;;;47.67;17.05;;;;;;;-1.09;90.81;99877.53;8458270;27;20048;-73
2022/03/05 03:44:57;;;;;;;38.17;15.77;;;;;;;-1.10;91.03;99886.50;8456792;28;20130;-72
2022/03/05 03:48:59;;;;;;;38.40;15.05;;;;;;;-1.06;91.10;99887.72;8458549;28;20088;-72
2022/03/05 03:53:00;;;;;;;36.83;15.30;;;;;;;-1.08;91.25;99889.75;8429483;28;20115;-71
2022/03/05 03:57:01;;;;;;;32.53;14.23;;;;;;;-1.10;90.99;99891.78;8450991;28;20491;-71
2022/03/05 04:01:02;;;;;;;37.58;14.88;;;;;;;-1.10;90.57;99891.78;8453900;28;20067;-71
2022/03/05 04:05:04;;;;;;;34.35;14.45;;;;;;;-1.08;90.93;99889.75;8459285;28;20084;-73
2022/03/05 04:09:04;;;;;;;34.80;14.35;;;;;;;-1.10;90.88;99897.09;8413288;28;20048;-72
2022/03/05 04:13:06;;;;;;;36.08;14.57;;;;;;;-1.10;90.57;99918.31;8426233;28;20123;-72
2022/03/05 04:17:06;;;;;;;33.38;15.02;;;;;;;-1.11;90.63;99906.09;8421511;28;20063;-72
2022/03/05 04:21:08;;;;;;;32.28;14.45;;;;;;;-1.12;90.43;99909.78;8442295;28;20059;-71
2022/03/05 04:25:09;;;;;;;35.88;14.13;;;;;;;-1.13;90.59;99908.13;8430657;28;20063;-72
2022/03/05 04:29:11;;;;;;;34.85;14.60;;;;;;;-1.14;90.37;99907.31;8463669;28;20121;-71
2022/03/05 04:33:12;;;;;;;33.38;13.70;;;;;;;-1.11;90.19;99900.81;8446834;28;20056;-72
2022/03/05 04:37:13;;;;;;;38.67;15.38;;;;;;;-1.12;90.12;99909.78;8431935;28;20055;-72
2022/03/05 04:41:14;;;;;;;38.30;15.85;;;;;;;-1.13;90.29;99902.84;8487564;27;20043;-71
2022/03/05 04:45:15;;;;;;;39.40;16.95;;;;;;;-1.16;90.49;99903.28;8428629;28;20039;-72
2022/03/05 04:49:16;;;;;;;37.70;16.95;;;;;;;-1.21;90.58;99916.31;8464173;28;20058;-71
2022/03/05 04:53:19;;;;;;;38.35;16.10;;;;;;;-1.32;90.95;99908.03;8458931;28;20070;-72
2022/03/05 04:57:20;;;;;;;37.78;16.35;;;;;;;-1.50;90.91;99915.06;8434375;28;20067;-71
2022/03/05 05:01:21;;;;;;;42.15;16.48;;;;;;;-1.63;91.05;99918.56;8438519;28;20040;-72
2022/03/05 05:05:22;;;;;;;43.08;17.27;;;;;;;-1.75;91.69;99914.97;8427435;28;20471;-72
2022/03/05 05:09:23;;;;;;;38.40;16.50;;;;;;;-1.83;91.89;99923.13;8447091;28;20048;-72
2022/03/05 05:13:27;;;;;;;39.55;16.95;;;;;;;-1.90;91.74;99924.97;8446044;28;20128;-72
2022/03/05 05:17:28;;;;;;;40.08;16.33;;;;;;;-1.95;91.81;99935.38;8446566;27;20059;-71
2022/03/05 05:21:29;;;;;;;38.85;16.60;;;;;;;-1.98;91.91;99926.03;8457522;27;20063;-71
2022/03/05 05:25:30;;;;;;;42.40;18.45;;;;;;;-2.05;92.28;99924.41;8442183;27;20052;-71
2022/03/05 05:29:31;;;;;;;43.13;18.15;;;;;;;-2.10;92.43;99932.13;8451804;27;20051;-71
2022/03/05 05:33:32;;;;;;;46.45;18.88;;;;;;;-2.16;92.15;99929.31;8437029;28;20048;-71
2022/03/05 05:37:34;;;;;;;46.97;19.15;;;;;;;-2.21;92.53;99936.22;8438617;28;20075;-72
2022/03/05 05:41:35;;;;;;;51.33;19.58;;;;;;;-2.23;92.38;99933.81;8444121;28;20047;-72
2022/03/05 05:45:36;;;;;;;45.78;18.88;;;;;;;-2.26;92.24;99934.19;8437260;27;20504;-72
2022/03/05 05:49:37;;;;;;;44.28;19.70;;;;;;;-2.23;92.59;99928.53;8447049;27;20048;-71
2022/03/05 05:53:38;;;;;;;47.38;20.35;;;;;;;-2.16;92.07;99939.88;8443519;27;20522;-72
2022/03/05 05:57:39;;;;;;;46.40;20.48;;;;;;;-2.04;92.29;99939.25;8417864;28;20074;-72
2022/03/05 06:01:39;;;;;;;53.25;19.88;;;;;;;-1.92;92.28;99929.66;8410789;28;20142;-73
2022/03/05 06:05:41;;;;;;;46.00;20.60;;;;;;;-1.79;91.82;99934.91;8448053;28;20449;-72
2022/03/05 06:09:41;;;;;;;50.17;22.80;;;;;;;-1.66;91.42;99934.88;8448711;27;20082;-73
2022/03/05 06:13:43;;;;;;;49.03;23.08;;;;;;;-1.53;91.63;99945.41;8472726;27;20052;-72
2022/03/05 06:17:44;;;;;;;52.47;22.45;;;;;;;-1.46;91.51;99938.28;8463300;27;20050;-71
2022/03/05 06:21:45;;;;;;;54.90;23.05;;;;;;;-1.46;91.16;99940.91;8459777;28;20518;-71
2022/03/05 06:25:46;;;;;;;56.47;25.80;;;;;;;-1.46;91.20;99940.09;8442485;28;20131;-72
2022/03/05 06:29:47;;;;;;;51.85;24.80;;;;;;;-1.48;91.50;99948.25;8441787;28;20051;-72
2022/03/05 06:33:48;;;;;;;57.80;23.70;;;;;;;-1.42;91.67;99947.41;8459218;27;20039;-71
2022/03/05 06:37:49;;;;;;;50.47;23.95;;;;;;;-1.43;91.37;99948.44;8428013;28;20051;-72
2022/03/05 06:41:50;;;;;;;58.63;24.23;;;;;;;-1.40;91.24;99955.16;8427348;28;20150;-72
2022/03/05 06:45:52;;;;;;;54.20;23.05;;;;;;;-1.22;91.28;99954.47;8427908;28;20097;-73
2022/03/05 06:49:53;;;;;;;52.38;24.58;;;;;;;-1.13;90.60;99961.16;8459392;27;20070;-72
2022/03/05 06:53:54;;;;;;;58.85;26.05;;;;;;;-1.11;90.37;99964.41;8481713;27;20044;-72
2022/03/05 06:57:55;;;;;;;49.72;24.02;;;;;;;-1.03;90.13;99962.31;8460554;28;20127;-71
2022/03/05 07:01:56;;;;;;;50.85;24.60;;;;;;;-1.01;90.06;99964.78;8459392;28;20131;-72
2022/03/05 07:05:57;;;;;;;61.38;24.35;;;;;;;-1.01;89.86;99970.06;8441788;28;20518;-72
2022/03/05 07:09:59;;;;;;;51.13;24.75;;;;;;;-0.96;89.89;99978.19;8493063;27;20133;-72
2022/03/05 07:13:59;;;;;;;57.40;26.10;;;;;;;-1.03;89.99;99977.41;8458470;28;20047;-71
2022/03/05 07:18:00;;;;;;;54.30;24.42;;;;;;;-1.01;90.01;99970.06;8494380;27;20044;-72
2022/03/05 07:22:01;;;;;;;52.83;25.00;;;;;;;-1.04;89.69;99981.06;8457657;28;20188;-72
2022/03/05 07:26:03;;;;;;;59.75;25.83;;;;;;;-1.15;90.44;99979.91;8492570;27;20072;-73
2022/03/05 07:30:05;;;;;;;62.05;26.00;;;;;;;-0.99;89.44;99978.59;8429629;28;20047;-71
2022/03/05 07:34:06;;;;;;;53.92;26.77;;;;;;;-0.95;89.59;99985.09;8489941;27;20513;-72
2022/03/05 07:38:07;;;;;;;60.15;26.58;;;;;;;-0.84;88.74;99987.09;8494421;27;20043;-72
2022/03/05 07:42:09;;;;;;;60.95;26.65;;;;;;;-0.81;88.71;99997.28;8494095;27;20418;-72
2022/03/05 07:46:10;;;;;;;57.35;25.30;;;;;;;-0.75;88.34;100001.75;8458046;28;20495;-72
2022/03/05 07:50:11;;;;;;;54.40;25.98;;;;;;;-0.69;88.50;100011.50;8460184;28;20048;-71
2022/03/05 07:54:12;;;;;;;59.95;26.25;;;;;;;-0.56;88.06;100000.78;8460417;28;20096;-71
2022/03/05 07:58:16;;;;;;;60.05;27.83;;;;;;;-0.57;87.88;99998.34;8460000;28;20116;-71
2022/03/05 08:02:17;;;;;;;60.13;28.65;;;;;;;-0.59;87.94;100011.84;8472416;27;20047;-72
2022/03/05 08:06:18;;;;;;;62.28;28.55;;;;;;;-0.45;87.28;100007.25;8500740;27;20050;-72
2022/03/05 08:10:19;;;;;;;70.03;29.60;;;;;;;-0.37;87.04;100008.84;8473862;27;20052;-72
2022/03/05 08:14:20;;;;;;;60.65;26.50;;;;;;;-0.33;86.50;100010.03;8480834;27;20044;-71
2022/03/05 08:18:22;;;;;;;50.55;22.33;;;;;;;-0.24;85.51;100012.19;8383472;28;20418;-72
2022/03/05 08:22:24;;;;;;;55.85;24.60;;;;;;;-0.17;84.64;100015.63;8432607;28;20094;-72
2022/03/05 08:26:24;;;;;;;50.15;24.48;;;;;;;-0.24;85.28;100016.69;8446657;27;20459;-72
2022/03/05 08:30:25;;;;;;;48.33;23.73;;;;;;;-0.21;85.17;100018.91;8481523;27;20138;-72
2022/03/05 08:34:26;;;;;;;54.75;23.60;;;;;;;-0.08;85.47;100018.78;8480318;27;20058;-72
2022/03/05 08:38:31;;;;;;;48.33;22.95;;;;;;;-0.06;85.32;100022.06;8495409;27;20084;-72
2022/03/05 08:42:35;;;;;;;46.50;20.88;;;;;;;0.04;84.12;100027.69;8470124;27;20491;-72
2022/03/05 08:46:36;;;;;;;42.25;20.55;;;;;;;0.10;83.98;100032.13;8480170;27;20043;-72
2022/03/05 08:50:37;;;;;;;45.88;20.48;;;;;;;0.27;83.54;100038.50;8445910;28;20138;-72
2022/03/05 08:54:38;;;;;;;49.22;21.00;;;;;;;0.41;83.25;100033.88;8465956;27;20051;-71
2022/03/05 08:58:39;;;;;;;39.85;20.73;;;;;;;0.59;81.51;100041.03;8486631;27;20110;-71
2022/03/05 09:02:40;;;;;;;43.47;21.08;;;;;;;0.66;82.19;100044.44;8446468;28;20086;-71
2022/03/05 09:06:41;;;;;;;51.13;24.88;;;;;;;0.92;81.36;100041.47;8464707;28;20059;-72
2022/03/05 09:10:43;;;;;;;49.00;22.88;;;;;;;1.21;80.86;100047.88;8461577;28;20475;-71
2022/03/05 09:14:46;;;;;;;51.22;23.25;;;;;;;1.28;80.28;100046.75;8422852;28;20056;-72
2022/03/05 09:18:48;;;;;;;55.35;23.17;;;;;;;1.40;80.26;100045.97;8433003;28;20052;-72
2022/03/05 09:22:48;;;;;;;43.80;22.42;;;;;;;1.10;80.08;100049.44;8429539;28;20086;-72
2022/03/05 09:26:49;;;;;;;51.83;23.50;;;;;;;1.08;79.88;100046.19;8438469;28;20059;-72
2022/03/05 09:30:50;;;;;;;51.10;24.60;;;;;;;0.93;79.86;100032.47;8451368;28;20503;-72
2022/03/05 09:34:51;;;;;;;56.42;25.45;;;;;;;1.01;80.62;100042.78;8430625;28;20047;-72
2022/03/05 09:38:52;;;;;;;57.97;24.80;;;;;;;1.21;79.68;100045.22;8429559;28;20460;-72
2022/03/05 09:42:54;;;;;;;51.42;24.17;;;;;;;1.14;79.61;100047.97;8457434;28;20043;-72
2022/03/05 09:46:56;;;;;;;61.88;26.30;;;;;;;1.21;79.95;100040.72;8429038;28;20051;-71
2022/03/05 09:50:58;;;;;;;65.97;28.75;;;;;;;1.37;79.72;100043.78;8445021;27;20113;-72
2022/03/05 09:54:59;;;;;;;60.35;26.73;;;;;;;1.45;78.74;100040.78;8474121;27;20048;-72
2022/03/05 09:59:00;;;;;;;65.68;27.95;;;;;;;1.53;78.72;100035.16;8462875;28;20404;-72
2022/03/05 10:03:05;;;;;;;67.38;30.40;;;;;;;1.91;78.20;100030.25;8449336;28;20052;-72
2022/03/05 10:07:15;;;;;;;73.25;32.00;;;;;;;2.07;76.70;100040.22;8444190;28;20415;-72
2022/03/05 10:11:16;;;;;;;73.70;32.38;;;;;;;2.38;76.03;100035.63;8409930;28;20139;-71
2022/03/05 10:15:23;;;;;;;74.78;33.17;;;;;;;2.40;76.04;100041.50;8426500;28;20127;-72
2022/03/05 10:19:24;;;;;;;78.28;33.63;;;;;;;2.39;76.18;100042.56;8428924;28;20044;-73
2022/03/05 10:23:25;;;;;;;82.65;39.22;;;;;;;2.52;74.35;100048.47;8428260;28;20511;-72
2022/03/05 10:27:30;;;;;;;71.53;33.22;;;;;;;2.33;74.57;100043.47;8428927;28;20078;-72
2022/03/05 10:31:31;;;;;;;72.45;31.20;;;;;;;2.22;75.09;100046.97;8461749;28;20047;-72
2022/03/05 10:35:32;;;;;;;75.32;31.90;;;;;;;2.31;74.67;100029.59;8494906;27;20461;-72
2022/03/05 10:39:33;;;;;;;68.95;30.20;;;;;;;2.59;73.41;100032.34;8461776;28;20054;-72
2022/03/05 10:43:34;;;;;;;64.63;30.63;;;;;;;3.08;72.37;100027.47;8462151;28;20621;-72
2022/03/05 10:47:40;;;;;;;57.50;27.55;;;;;;;3.37;70.50;100035.25;8459632;28;20059;-72
2022/03/05 10:51:41;;;;;;;61.03;28.35;;;;;;;3.44;68.21;100023.63;8461484;28;20062;-72
2022/03/05 10:55:42;;;;;;;55.55;27.40;;;;;;;3.26;68.36;100027.28;8465914;27;20050;-72
2022/03/05 10:59:46;;;;;;;61.70;26.88;;;;;;;3.50;68.99;100023.47;8467596;27;20549;-72
2022/03/05 11:03:49;;;;;;;54.67;24.73;;;;;;;3.80;67.38;100034.69;8461017;28;20550;-73
2022/03/05 11:07:50;;;;;;;49.47;23.13;;;;;;;3.83;64.75;100023.50;8462518;28;20079;-73
2022/03/05 11:11:52;;;;;;;52.08;23.63;;;;;;;3.91;64.82;100025.00;8441868;28;20055;-72
2022/03/05 11:15:53;;;;;;;61.90;26.33;;;;;;;4.01;62.35;100024.34;8442233;28;20059;-71
2022/03/05 11:19:54;;;;;;;40.13;20.63;;;;;;;4.02;62.10;100020.63;8446202;27;20056;-72
2022/03/05 11:23:59;;;;;;;50.55;22.13;;;;;;;4.30;61.24;100022.34;8438524;28;20043;-71
2022/03/05 11:28:04;;;;;;;41.15;19.02;;;;;;;4.58;60.44;100015.00;8449367;28;20040;-72
2022/03/05 11:32:12;;;;;;;39.45;19.27;;;;;;;5.00;61.18;100001.06;8427803;28;20063;-73
2022/03/05 11:36:31;;;;;;;31.13;15.52;;;;;;;5.32;57.86;99999.28;8432857;28;20052;-72
2022/03/05 11:40:38;;;;;;;28.33;14.85;;;;;;;4.91;56.60;100007.94;8433552;28;20050;-72
2022/03/05 11:44:43;;;;;;;23.88;11.18;;;;;;;4.37;57.17;100007.75;8434314;28;20097;-72
2022/03/05 11:48:59;;;;;;;23.02;9.88;;;;;;;3.77;56.80;100003.09;8440576;27;20587;-72
2022/03/05 11:53:05;;;;;;;27.35;11.65;;;;;;;3.60;56.62;100012.13;8446979;27;20126;-73
2022/03/05 11:57:11;;;;;;;15.85;8.35;;;;;;;3.48;55.42;100004.22;8460023;27;20063;-72
2022/03/05 12:01:39;;;;;;;17.42;7.65;;;;;;;3.42;55.49;100002.50;8451015;27;20511;-71
2022/03/05 12:05:41;;;;;;;16.63;7.70;;;;;;;3.34;55.53;100009.03;8461833;27;20051;-72
2022/03/05 12:09:53;;;;;;;18.40;7.95;;;;;;;3.48;56.13;100004.22;8451659;27;20059;-71
2022/03/05 12:13:57;;;;;;;19.40;7.75;;;;;;;3.37;54.55;100002.41;8425670;27;20040;-71
2022/03/05 12:18:05;;;;;;;17.67;8.35;;;;;;;3.37;55.27;100007.75;8447812;27;20067;-72
2022/03/05 12:22:13;;;;;;;13.60;6.68;;;;;;;3.38;54.97;99993.34;8449869;27;20590;-72
2022/03/05 12:26:15;;;;;;;15.53;7.00;;;;;;;3.48;53.93;99998.88;8443874;27;20612;-72
2022/03/05 12:30:22;;;;;;;14.35;6.18;;;;;;;3.56;53.12;100000.31;8447089;27;20147;-72
2022/03/05 12:34:26;;;;;;;13.73;6.38;;;;;;;3.73;52.00;99991.28;8439054;28;20058;-72
2022/03/05 12:38:27;;;;;;;15.18;6.00;;;;;;;3.78;52.03;99999.38;8445144;27;20044;-72
2022/03/05 12:42:49;;;;;;;11.32;5.50;;;;;;;3.66;51.36;99995.97;8451283;27;20097;-71
2022/03/05 12:46:50;;;;;;;12.48;6.10;;;;;;;3.57;49.84;99997.41;8437817;27;20391;-72
2022/03/05 12:50:53;;;;;;;11.38;5.30;;;;;;;3.59;50.72;99999.88;8432943;27;20048;-72
2022/03/05 12:54:54;;;;;;;13.27;5.88;;;;;;;3.73;50.17;99993.16;8453727;27;20059;-72
2022/03/05 12:58:59;;;;;;;10.15;5.28;;;;;;;4.05;49.19;99993.38;8454599;27;20461;-72
2022/03/05 13:03:00;;;;;;;14.75;6.18;;;;;;;4.01;49.08;99986.91;8463907;27;20039;-72
2022/03/05 13:07:02;;;;;;;20.58;8.55;;;;;;;4.19;48.80;99983.97;8456096;27;20063;-72
2022/03/05 13:11:11;;;;;;;15.50;7.25;;;;;;;4.08;48.91;99987.53;8452246;27;20051;-73
2022/03/05 13:15:31;;;;;;;14.65;6.70;;;;;;;3.87;49.29;99985.59;8488879;27;20040;-74
2022/03/05 13:19:32;;;;;;;19.60;8.27;;;;;;;4.10;49.30;99985.44;8443412;27;20507;-73
2022/03/05 13:23:38;;;;;;;13.98;6.03;;;;;;;3.79;48.75;99990.31;8444922;27;20097;-73
2022/03/05 13:27:39;;;;;;;15.32;6.20;;;;;;;3.64;49.31;99987.41;8450715;27;20153;-73
2022/03/05 13:31:40;;;;;;;12.73;6.05;;;;;;;3.65;48.92;99989.00;8433462;27;20056;-72
2022/03/05 13:35:42;;;;;;;15.65;5.70;;;;;;;3.50;48.80;99988.75;8452429;27;20059;-73
2022/03/05 13:39:44;;;;;;;10.13;5.38;;;;;;;3.32;48.83;99994.31;8442124;27;20413;-72
2022/03/05 13:43:45;;;;;;;10.82;5.05;;;;;;;3.23;49.08;99990.38;8438641;27;20064;-72
2022/03/05 13:47:49;;;;;;;11.13;5.10;;;;;;;3.22;48.87;99983.44;8432615;27;20051;-72
2022/03/05 13:51:52;;;;;;;13.98;5.55;;;;;;;3.34;48.57;99986.84;8453470;27;20044;-73
2022/03/05 13:56:03;;;;;;;11.85;5.30;;;;;;;3.40;49.21;99988.56;8453974;27;20059;-72
2022/03/05 14:00:07;;;;;;;9.57;4.75;;;;;;;3.51;48.97;99993.03;8444804;27;20092;-72
2022/03/05 14:04:10;;;;;;;9.70;4.85;;;;;;;3.34;47.96;99986.84;8451538;27;20051;-72
2022/03/05 14:08:11;;;;;;;10.32;5.03;;;;;;;3.18;48.50;99987.63;8458547;27;20109;-72
2022/03/05 14:12:18;;;;;;;9.60;4.80;;;;;;;3.10;49.16;99985.34;8448544;27;20062;-73
2022/03/05 14:16:43;;;;;;;10.48;5.40;;;;;;;3.04;48.60;99986.31;8415880;28;20054;-74
2022/03/05 14:20:50;;;;;;;13.68;4.93;;;;;;;2.94;49.29;99982.41;8442472;27;20079;-74
2022/03/05 14:24:58;;;;;;;10.98;5.38;;;;;;;2.89;48.91;99995.63;8446612;27;20092;-73
2022/03/05 14:29:04;;;;;;;10.70;5.13;;;;;;;2.83;48.82;99990.44;8412746;27;20085;-75
2022/03/05 14:33:11;;;;;;;13.07;5.10;;;;;;;2.87;49.09;100003.06;8449197;27;20047;-73
2022/03/05 14:37:15;;;;;;;14.90;5.22;;;;;;;2.68;48.85;100006.13;8444371;27;20039;-73
2022/03/05 14:41:19;;;;;;;9.77;5.07;;;;;;;2.88;48.87;100004.69;8445260;27;20472;-73
2022/03/05 14:45:22;;;;;;;11.73;5.57;;;;;;;3.01;48.92;100013.47;8417114;28;20052;-72
2022/03/05 14:49:23;;;;;;;10.02;4.78;;;;;;;2.99;48.79;100003.03;8415628;28;20134;-72
2022/03/05 14:53:24;;;;;;;11.77;5.35;;;;;;;3.09;48.38;99989.06;8411445;28;20188;-72
2022/03/05 14:57:25;;;;;;;10.57;5.07;;;;;;;3.13;48.18;99974.19;8394618;28;20044;-72
2022/03/05 15:01:26;;;;;;;11.02;5.45;;;;;;;3.26;47.25;99984.59;8412993;28;20368;-74
2022/03/05 15:05:27;;;;;;;12.70;5.80;;;;;;;3.36;47.75;99979.44;8415499;28;20100;-74
2022/03/05 15:09:29;;;;;;;10.05;5.03;;;;;;;3.46;47.09;99976.13;8423423;28;20078;-73
2022/03/05 15:13:37;;;;;;;12.02;5.30;;;;;;;3.49;46.47;99973.75;8367342;28;20055;-74
2022/03/05 15:17:43;;;;;;;15.15;5.13;;;;;;;3.41;46.73;99976.84;8413161;28;20044;-74
2022/03/05 15:21:47;;;;;;;12.57;5.82;;;;;;;3.33;47.00;99979.91;8437457;28;20051;-75
2022/03/05 15:25:51;;;;;;;13.18;5.53;;;;;;;3.16;46.95;99979.06;8384742;27;20066;-73
2022/03/05 15:29:52;;;;;;;14.90;5.30;;;;;;;2.87;47.30;99979.03;8466636;28;20059;-73
2022/03/05 15:33:54;;;;;;;16.23;5.40;;;;;;;2.88;47.59;99983.34;8442675;27;20096;-74
2022/03/05 15:37:55;;;;;;;12.65;5.28;;;;;;;2.76;48.06;99990.56;8461911;28;20055;-73
2022/03/05 15:41:58;;;;;;;13.63;5.00;;;;;;;2.59;47.14;99989.69;8468352;28;20151;-74
2022/03/05 15:46:00;;;;;;;12.77;5.10;;;;;;;2.46;48.22;100006.75;8455769;28;20130;-74
2022/03/05 15:50:02;;;;;;;12.55;5.88;;;;;;;2.39;47.37;100015.88;8422083;28;20047;-74
2022/03/05 15:54:07;;;;;;;14.35;5.40;;;;;;;2.18;48.02;100014.63;8499669;27;20056;-76
2022/03/05 15:58:14;;;;;;;12.77;5.45;;;;;;;1.97;48.38;100012.53;8434453;27;20134;-74
2022/03/05 16:02:15;;;;;;;17.23;5.80;;;;;;;1.94;48.93;100013.81;8461282;28;20043;-74
2022/03/05 16:06:18;;;;;;;11.32;4.72;;;;;;;1.83;49.09;100021.78;8453936;28;20400;-75
2022/03/05 16:10:19;;;;;;;18.70;5.47;;;;;;;1.82;49.64;100030.81;8441991;27;20052;-75
2022/03/05 16:14:20;;;;;;;14.70;5.60;;;;;;;1.83;50.16;100027.94;8427288;28;20044;-74
2022/03/05 16:18:22;;;;;;;14.93;5.60;;;;;;;1.80;50.45;100031.03;8443064;28;20043;-74
2022/03/05 16:22:24;;;;;;;10.73;5.68;;;;;;;1.71;50.83;100035.06;8464859;27;20446;-75
2022/03/05 16:26:25;;;;;;;15.20;5.78;;;;;;;1.68;51.33;100035.53;8479772;27;20055;-75
2022/03/05 16:30:29;;;;;;;16.63;6.28;;;;;;;1.61;50.77;100024.16;8465460;28;20032;-75
2022/03/05 16:34:33;;;;;;;15.95;6.45;;;;;;;1.52;51.28;100020.22;8465479;28;20039;-75
2022/03/05 16:38:39;;;;;;;18.13;6.90;;;;;;;1.59;50.13;100026.25;8426820;28;20056;-74
2022/03/05 16:42:42;;;;;;;29.42;7.32;;;;;;;1.45;51.31;100030.16;8432218;28;20110;-75
2022/03/05 16:46:44;;;;;;;16.80;6.82;;;;;;;1.41;52.04;100028.97;8460678;28;20565;-75
2022/03/05 16:50:45;;;;;;;15.73;6.82;;;;;;;1.34;52.95;100028.25;8460255;28;20143;-76
2022/03/05 16:54:49;;;;;;;15.10;6.95;;;;;;;1.26;53.13;100026.72;8460100;28;20055;-76
2022/03/05 16:58:50;;;;;;;15.52;7.07;;;;;;;1.16;52.74;100032.56;8443699;28;20427;-76
2022/03/05 17:02:53;;;;;;;15.07;6.88;;;;;;;1.16;52.94;100027.25;8426491;28;20044;-77
2022/03/05 17:06:59;;;;;;;14.05;6.40;;;;;;;1.13;52.95;100022.38;8443245;28;20046;-74
2022/03/05 17:11:02;;;;;;;12.68;6.00;;;;;;;1.03;52.81;100022.13;8410818;28;20091;-74
2022/03/05 17:15:07;;;;;;;14.55;6.38;;;;;;;1.07;52.76;100023.28;8439755;28;20463;-73
2022/03/05 17:19:08;;;;;;;17.45;7.22;;;;;;;1.09;53.12;100015.09;8462415;27;20491;-73
2022/03/05 17:23:09;;;;;;;22.25;8.32;;;;;;;1.12;52.91;100010.13;8445238;27;20109;-73
2022/03/05 17:27:11;;;;;;;23.25;8.38;;;;;;;1.04;53.40;100013.09;8442833;28;20081;-73
2022/03/05 17:31:12;;;;;;;19.17;8.75;;;;;;;1.00;53.92;100014.59;8462148;28;20058;-73
2022/03/05 17:35:15;;;;;;;23.23;8.55;;;;;;;0.98;54.20;100016.66;8462733;28;20051;-74
2022/03/05 17:39:16;;;;;;;20.92;8.40;;;;;;;0.93;54.88;100011.19;8440941;28;20044;-74
2022/03/05 17:43:18;;;;;;;17.92;7.97;;;;;;;0.88;55.29;100019.03;8458551;28;20147;-73
2022/03/05 17:47:19;;;;;;;20.85;8.98;;;;;;;0.86;55.65;100021.09;8460353;28;20058;-73
2022/03/05 17:51:21;;;;;;;24.52;9.82;;;;;;;0.80;56.33;100021.97;8442491;28;20127;-73
2022/03/05 17:55:23;;;;;;;26.10;10.10;;;;;;;0.75;56.84;100029.81;8452259;28;20055;-73
2022/03/05 17:59:25;;;;;;;22.30;9.55;;;;;;;0.70;57.82;100027.81;8460657;28;20134;-74
2022/03/05 18:03:27;;;;;;;24.17;10.52;;;;;;;0.68;57.78;100031.75;8432693;28;20161;-74
2022/03/05 18:07:28;;;;;;;26.60;10.70;;;;;;;0.64;57.98;100038.53;8430084;28;20071;-74
2022/03/05 18:11:29;;;;;;;43.78;16.02;;;;;;;0.66;57.63;100041.78;8441190;28;20051;-73
2022/03/05 18:15:33;;;;;;;85.30;25.38;;;;;;;0.60;57.67;100047.97;8453605;28;20556;-74
2022/03/05 18:19:35;;;;;;;77.20;24.15;;;;;;;0.60;57.92;100053.28;8432001;28;20043;-74
2022/03/05 18:23:36;;;;;;;62.63;21.90;;;;;;;0.58;57.81;100050.06;8452785;28;20056;-74
2022/03/05 18:27:38;;;;;;;53.08;18.85;;;;;;;0.54;58.66;100048.84;8445141;28;20414;-73
2022/03/05 18:31:40;;;;;;;55.70;18.92;;;;;;;0.47;59.69;100037.50;8453125;28;20047;-73
2022/03/05 18:35:42;;;;;;;41.40;15.13;;;;;;;0.40;59.81;100043.69;8435268;28;20054;-74
2022/03/05 18:39:46;;;;;;;36.47;14.48;;;;;;;0.38;60.04;100045.75;8437353;28;20164;-73
2022/03/05 18:43:47;;;;;;;36.70;13.75;;;;;;;0.33;60.46;100036.81;8433062;28;20089;-73